createdAt,value
2018-03-22T00:01:11.363Z,98816.67
2018-03-22T00:03:38.957Z,98813.80
2018-03-22T00:06:06.607Z,98799.16
2018-03-22T00:08:34.257Z,98804.44
2018-03-22T00:11:01.876Z,98807.20
2018-03-22T00:13:29.467Z,98805.20
2018-03-22T00:15:57.111Z,98816.92
2018-03-22T00:18:24.694Z,98824.78
2018-03-22T00:20:52.370Z,98818.31
2018-03-22T00:23:20.215Z,98824.83
2018-03-22T00:25:47.788Z,98819.78
2018-03-22T00:28:15.430Z,98825.50
2018-03-22T00:30:43.068Z,98819.41
2018-03-22T00:33:10.711Z,98822.03
2018-03-22T00:35:38.483Z,98823.52
2018-03-22T00:38:06.280Z,98823.42
2018-03-22T00:40:33.852Z,98823.55
2018-03-22T00:43:01.426Z,98821.94
2018-03-22T00:45:29.069Z,98818.69
2018-03-22T00:47:56.661Z,98813.53
2018-03-22T00:50:24.254Z,98815.66
2018-03-22T00:52:51.891Z,98817.93
2018-03-22T00:55:19.465Z,98811.89
2018-03-22T00:57:47.038Z,98818.69
2018-03-22T01:00:14.702Z,98830.76
2018-03-22T01:02:42.279Z,98853.95
2018-03-22T01:05:09.882Z,98847.72
2018-03-22T01:07:37.741Z,98850.33
2018-03-22T01:10:05.368Z,98863.59
2018-03-22T01:12:33.007Z,98882.33
2018-03-22T01:15:00.631Z,98886.30
2018-03-22T01:17:28.220Z,98887.36
2018-03-22T01:19:56.630Z,98889.00
2018-03-22T01:22:24.242Z,98885.92
2018-03-22T01:24:51.808Z,98890.63
2018-03-22T01:27:19.372Z,98900.05
2018-03-22T01:29:47.029Z,98890.63
2018-03-22T01:32:14.634Z,98882.59
2018-03-22T01:34:42.219Z,98880.16
2018-03-22T01:37:09.868Z,98895.71
2018-03-22T01:39:37.690Z,98892.75
2018-03-22T01:42:05.335Z,98895.91
2018-03-22T01:44:32.986Z,98905.97
2018-03-22T01:47:00.551Z,98910.20
2018-03-22T01:49:28.145Z,98908.86
2018-03-22T01:51:55.757Z,98915.97
2018-03-22T01:54:23.337Z,98915.84
2018-03-22T01:56:51.872Z,98905.27
2018-03-22T01:59:19.500Z,98895.13
2018-03-22T02:01:47.092Z,98896.52
2018-03-22T02:04:14.695Z,98895.34
2018-03-22T02:06:42.336Z,98888.27
2018-03-22T02:09:09.911Z,98900.95
2018-03-22T02:11:37.469Z,98899.53
2018-03-22T02:14:05.371Z,98901.38
2018-03-22T02:16:32.940Z,98906.23
2018-03-22T02:19:00.515Z,98905.47
2018-03-22T02:21:28.165Z,98900.80
2018-03-22T02:23:55.814Z,98904.28
2018-03-22T02:26:23.383Z,98906.50
2018-03-22T02:28:51.243Z,98914.41
2018-03-22T02:31:18.881Z,98912.92
2018-03-22T02:33:46.523Z,98925.38
2018-03-22T02:36:14.213Z,98919.22
2018-03-22T02:38:41.776Z,98913.93
2018-03-22T02:41:09.553Z,98911.13
2018-03-22T02:43:37.274Z,98911.30
2018-03-22T02:46:04.848Z,98914.88
2018-03-22T02:48:32.451Z,98908.59
2018-03-22T02:51:00.400Z,98905.61
2018-03-22T02:53:27.968Z,98914.38
2018-03-22T02:55:55.550Z,98904.88
2018-03-22T02:58:23.220Z,98896.33
2018-03-22T03:00:50.795Z,98898.94
2018-03-22T03:03:18.383Z,98905.41
2018-03-22T03:05:46.019Z,98903.54
2018-03-22T03:08:13.622Z,98907.36
2018-03-22T03:10:41.269Z,98905.38
2018-03-22T03:13:08.912Z,98905.64
2018-03-22T03:15:36.553Z,98908.16
2018-03-22T03:18:04.143Z,98914.56
2018-03-22T03:20:31.786Z,98916.10
2018-03-22T03:22:59.438Z,98907.43
2018-03-22T03:25:27.017Z,98916.40
2018-03-22T03:27:54.938Z,98926.84
2018-03-22T03:30:22.558Z,98918.13
2018-03-22T03:32:50.125Z,98927.63
2018-03-22T03:35:17.770Z,98935.15
2018-03-22T03:37:45.344Z,98921.39
2018-03-22T03:40:13.024Z,98924.63
2018-03-22T03:42:40.733Z,98919.47
2018-03-22T03:45:08.383Z,98926.78
2018-03-22T03:47:35.964Z,98930.35
2018-03-22T03:50:03.664Z,98924.98
2018-03-22T03:52:31.280Z,98926.43
2018-03-22T03:54:58.876Z,98930.52
2018-03-22T03:57:26.529Z,98934.87
2018-03-22T03:59:54.142Z,98937.72
2018-03-22T04:02:21.713Z,98931.12
2018-03-22T04:04:49.362Z,98945.65
2018-03-22T04:07:16.949Z,98948.84
2018-03-22T04:09:44.536Z,98949.33
2018-03-22T04:12:12.259Z,98954.80
2018-03-22T04:14:39.854Z,98956.55
2018-03-22T04:17:07.493Z,98955.27
2018-03-22T04:19:35.114Z,98959.09
2018-03-22T04:22:02.708Z,98953.48
2018-03-22T04:24:30.378Z,98950.34
2018-03-22T04:26:58.329Z,98954.58
2018-03-22T04:29:25.920Z,98964.75
2018-03-22T04:31:53.495Z,98969.42
2018-03-22T04:34:21.195Z,98976.02
2018-03-22T04:36:48.800Z,98973.79
2018-03-22T04:39:16.438Z,98964.09
2018-03-22T04:41:44.109Z,98959.50
2018-03-22T04:44:11.718Z,98947.48
2018-03-22T04:46:39.359Z,98961.28
2018-03-22T04:49:06.998Z,98961.02
2018-03-22T04:51:34.569Z,98968.77
2018-03-22T04:54:02.238Z,98960.98
2018-03-22T04:56:29.881Z,98973.75
2018-03-22T04:58:57.474Z,98974.75
2018-03-22T05:01:25.096Z,98974.46
2018-03-22T05:03:52.725Z,98970.47
2018-03-22T05:06:20.321Z,98975.31
2018-03-22T05:08:47.907Z,98975.85
2018-03-22T05:11:15.537Z,98980.33
2018-03-22T05:13:43.364Z,98979.81
2018-03-22T05:16:10.991Z,98983.78
2018-03-22T05:18:38.858Z,98970.63
2018-03-22T05:21:06.440Z,98978.58
2018-03-22T05:23:34.028Z,98977.39
2018-03-22T05:26:01.993Z,98979.53
2018-03-22T05:28:29.586Z,98979.87
2018-03-22T05:30:57.201Z,98980.06
2018-03-22T05:33:24.841Z,98966.70
2018-03-22T05:35:52.416Z,98964.20
2018-03-22T05:38:20.001Z,98969.09
2018-03-22T05:40:47.654Z,98972.78
2018-03-22T05:43:15.905Z,98974.88
2018-03-22T05:45:43.644Z,98967.46
2018-03-22T05:48:11.313Z,98965.23
2018-03-22T05:50:38.894Z,98964.23
2018-03-22T05:53:06.482Z,98966.27
2018-03-22T05:55:34.390Z,98976.51
2018-03-22T05:58:02.134Z,98974.63
2018-03-22T06:00:29.740Z,98985.11
2018-03-22T06:02:58.139Z,98992.48
2018-03-22T06:05:25.716Z,98985.93
2018-03-22T06:07:53.291Z,98986.45
2018-03-22T06:10:20.948Z,98984.45
2018-03-22T06:12:48.530Z,98998.93
2018-03-22T06:15:16.109Z,99005.15
2018-03-22T06:17:44.094Z,99003.02
2018-03-22T06:20:11.695Z,99006.33
2018-03-22T06:22:39.267Z,99005.97
2018-03-22T06:25:06.906Z,99014.34
2018-03-22T06:27:34.508Z,99010.66
2018-03-22T06:30:02.100Z,99008.81
2018-03-22T06:32:29.781Z,99002.89
2018-03-22T06:34:57.409Z,99000.61
2018-03-22T06:37:25.061Z,99005.69
2018-03-22T06:39:52.699Z,98996.01
2018-03-22T06:42:20.343Z,98996.92
2018-03-22T06:44:48.718Z,98995.83
2018-03-22T06:47:16.541Z,98997.68
2018-03-22T06:49:44.134Z,99003.09
2018-03-22T06:52:11.790Z,98999.84
2018-03-22T06:54:39.465Z,99006.02
2018-03-22T06:57:07.040Z,98998.67
2018-03-22T06:59:34.643Z,99002.36
2018-03-22T07:02:02.314Z,99013.70
2018-03-22T07:04:29.986Z,99023.30
2018-03-22T07:06:57.602Z,99025.91
2018-03-22T07:09:25.250Z,99034.07
2018-03-22T07:16:03.912Z,99033.49
2018-03-22T07:18:31.543Z,99038.91
2018-03-22T07:20:59.188Z,99036.09
2018-03-22T07:23:26.957Z,99032.78
2018-03-22T07:25:54.618Z,99035.81
2018-03-22T07:28:23.137Z,99030.91
2018-03-22T07:30:50.773Z,99031.78
2018-03-22T07:33:18.355Z,99021.02
2018-03-22T07:35:45.934Z,99021.73
2018-03-22T07:38:13.569Z,99020.17
2018-03-22T07:40:41.162Z,99030.10
2018-03-22T07:43:14.418Z,99021.70
2018-03-22T07:45:42.067Z,99023.17
2018-03-22T07:48:09.790Z,99017.00
2018-03-22T07:50:37.474Z,99018.48
2018-03-22T07:53:05.060Z,99029.12
2018-03-22T07:55:32.666Z,99024.33
2018-03-22T07:58:00.311Z,99018.97
2018-03-22T08:00:27.970Z,99031.61
2018-03-22T08:03:00.576Z,99027.63
2018-03-22T08:05:28.160Z,99019.23
2018-03-22T08:07:55.817Z,99018.81
2018-03-22T08:10:23.527Z,99015.38
2018-03-22T08:12:51.239Z,99034.53
2018-03-22T08:15:18.833Z,99026.66
2018-03-22T08:17:46.470Z,99026.34
2018-03-22T08:20:14.107Z,99015.41
2018-03-22T08:22:41.753Z,99013.84
2018-03-22T08:25:09.372Z,99013.42
2018-03-22T08:27:36.932Z,99008.83
2018-03-22T08:30:04.552Z,99006.86
2018-03-22T08:32:32.438Z,99005.72
2018-03-22T08:35:00.027Z,99002.02
2018-03-22T08:37:27.625Z,98998.47
2018-03-22T08:39:55.526Z,98996.63
2018-03-22T08:42:23.101Z,98996.17
2018-03-22T08:44:50.678Z,98984.91
2018-03-22T08:47:18.423Z,98991.19
2018-03-22T08:49:46.240Z,98981.67
2018-03-22T08:52:13.796Z,98975.98
2018-03-22T08:54:41.428Z,98967.28
2018-03-22T08:57:09.018Z,98960.82
2018-03-22T08:59:36.672Z,98957.16
2018-03-22T09:02:04.392Z,98954.88
2018-03-22T09:04:31.956Z,98962.35
2018-03-22T09:06:59.552Z,98960.20
2018-03-22T09:09:27.388Z,98958.20
2018-03-22T09:11:55.546Z,98958.36
2018-03-22T09:14:23.151Z,98954.02
2018-03-22T09:16:50.809Z,98943.81
2018-03-22T09:19:18.475Z,98944.20
2018-03-22T09:21:46.061Z,98928.86
2018-03-22T09:24:14.402Z,98920.41
2018-03-22T09:26:47.618Z,98928.52
2018-03-22T09:29:15.305Z,98931.60
2018-03-22T09:31:42.957Z,98926.14
2018-03-22T09:34:10.559Z,98920.94
2018-03-22T09:36:38.829Z,98917.32
2018-03-22T09:39:06.435Z,98918.03
2018-03-22T09:41:34.019Z,98908.47
2018-03-22T09:44:01.911Z,98901.78
2018-03-22T09:46:29.479Z,98900.96
2018-03-22T09:48:57.094Z,98900.12
2018-03-22T09:51:25.553Z,98889.40
2018-03-22T09:53:53.128Z,98887.97
2018-03-22T09:56:20.803Z,98875.98
2018-03-22T09:58:48.403Z,98879.73
2018-03-22T10:01:16.044Z,98871.00
2018-03-22T10:03:43.636Z,98859.52
2018-03-22T10:06:11.389Z,98857.81
2018-03-22T10:08:39.019Z,98855.41
2018-03-22T10:11:06.585Z,98851.42
2018-03-22T10:13:34.328Z,98849.94
2018-03-22T10:16:01.934Z,98839.27
2018-03-22T10:18:29.590Z,98850.84
2018-03-22T10:20:57.219Z,98839.88
2018-03-22T10:23:24.798Z,98830.44
2018-03-22T10:25:52.418Z,98827.08
2018-03-22T10:28:20.115Z,98830.11
2018-03-22T10:30:47.688Z,98823.15
2018-03-22T10:33:15.264Z,98817.80
2018-03-22T10:35:42.909Z,98817.78
2018-03-22T10:38:10.523Z,98810.58
2018-03-22T10:40:38.119Z,98795.45
2018-03-22T10:43:05.760Z,98787.94
2018-03-22T10:45:33.331Z,98780.13
2018-03-22T10:48:01.647Z,98769.41
2018-03-22T10:50:29.306Z,98780.49
2018-03-22T10:52:57.428Z,98778.50
2018-03-22T10:55:25.073Z,98765.20
2018-03-22T10:57:52.701Z,98768.80
2018-03-22T11:00:25.876Z,98763.67
2018-03-22T11:02:57.064Z,98756.47
2018-03-22T11:05:24.660Z,98758.00
2018-03-22T11:07:52.310Z,98758.10
2018-03-22T11:10:19.936Z,98754.30
2018-03-22T11:12:47.514Z,98764.30
2018-03-22T11:15:15.111Z,98770.34
2018-03-22T11:17:42.743Z,98766.16
2018-03-22T11:20:10.417Z,98767.92
2018-03-22T11:22:38.108Z,98770.34
2018-03-22T11:25:05.773Z,98762.12
2018-03-22T11:27:33.400Z,98764.94
2018-03-22T11:30:00.980Z,98767.17
2018-03-22T11:32:28.674Z,98776.33
2018-03-22T11:34:56.285Z,98778.80
2018-03-22T11:37:23.852Z,98763.67
2018-03-22T11:39:52.607Z,98760.48
2018-03-22T11:42:20.255Z,98754.00
2018-03-22T11:44:47.906Z,98757.33
2018-03-22T11:47:15.557Z,98753.14
2018-03-22T11:49:43.751Z,98750.34
2018-03-22T11:52:11.423Z,98747.34
2018-03-22T11:54:39.355Z,98736.43
2018-03-22T11:57:06.933Z,98731.19
2018-03-22T11:59:34.539Z,98729.38
2018-03-22T12:02:02.231Z,98732.64
2018-03-22T12:04:29.842Z,98714.19
2018-03-22T12:06:57.434Z,98712.89
2018-03-22T12:09:25.087Z,98708.90
2018-03-22T12:11:52.741Z,98708.05
2018-03-22T12:14:20.349Z,98702.24
2018-03-22T12:16:47.996Z,98690.15
2018-03-22T12:19:15.563Z,98693.41
2018-03-22T12:21:43.169Z,98691.48
2018-03-22T12:24:10.906Z,98688.59
2018-03-22T12:26:38.551Z,98684.87
2018-03-22T12:29:06.204Z,98693.34
2018-03-22T12:31:34.137Z,98693.67
2018-03-22T12:34:01.728Z,98689.58
2018-03-22T12:36:29.300Z,98688.78
2018-03-22T12:38:56.951Z,98679.41
2018-03-22T12:41:24.554Z,98679.83
2018-03-22T12:43:52.169Z,98666.41
2018-03-22T12:46:20.179Z,98650.35
2018-03-22T12:48:47.757Z,98644.23
2018-03-22T12:51:15.341Z,98637.09
2018-03-22T12:53:42.973Z,98633.93
2018-03-22T12:56:11.086Z,98636.65
2018-03-22T12:58:38.739Z,98622.55
2018-03-22T13:01:07.071Z,98604.97
2018-03-22T13:03:34.654Z,98605.30
2018-03-22T13:06:02.433Z,98602.00
2018-03-22T13:08:30.128Z,98602.45
2018-03-22T13:10:57.766Z,98618.83
2018-03-22T13:13:26.178Z,98615.24
2018-03-22T13:15:53.839Z,98623.96
2018-03-22T13:18:21.486Z,98622.89
2018-03-22T13:20:49.076Z,98635.66
2018-03-22T13:23:16.723Z,98639.29
2018-03-22T13:25:44.323Z,98641.66
2018-03-22T13:28:11.906Z,98643.12
2018-03-22T13:30:39.549Z,98646.48
2018-03-22T13:33:07.121Z,98653.97
2018-03-22T13:35:34.700Z,98648.11
2018-03-22T13:38:02.558Z,98646.25
2018-03-22T13:40:30.145Z,98622.67
2018-03-22T13:42:57.728Z,98628.77
2018-03-22T13:45:25.345Z,98629.60
2018-03-22T13:47:52.991Z,98624.41
2018-03-22T13:50:20.593Z,98608.42
2018-03-22T13:52:48.218Z,98579.70
2018-03-22T13:55:15.799Z,98565.88
2018-03-22T13:57:43.404Z,98554.95
2018-03-22T14:00:11.040Z,98559.29
2018-03-22T14:02:38.623Z,98544.11
2018-03-22T14:05:06.216Z,98555.63
2018-03-22T14:07:33.840Z,98549.65
2018-03-22T14:10:01.417Z,98562.05
2018-03-22T14:12:29.060Z,98568.17
2018-03-22T14:14:56.708Z,98579.42
2018-03-22T14:17:24.278Z,98574.41
2018-03-22T14:19:51.886Z,98564.25
2018-03-22T14:22:19.810Z,98556.44
2018-03-22T14:24:47.487Z,98563.73
2018-03-22T14:27:15.071Z,98555.95
2018-03-22T14:29:42.738Z,98558.50
2018-03-22T14:32:10.327Z,98551.67
2018-03-22T14:34:37.897Z,98555.41
2018-03-22T14:37:05.758Z,98562.36
2018-03-22T14:39:33.345Z,98573.98
2018-03-22T14:42:00.941Z,98568.55
2018-03-22T14:44:28.629Z,98556.98
2018-03-22T14:46:56.296Z,98549.02
2018-03-22T14:49:23.871Z,98541.83
2018-03-22T14:51:51.536Z,98541.65
2018-03-22T14:54:19.210Z,98537.84
2018-03-22T14:56:46.773Z,98536.63
2018-03-22T14:59:14.573Z,98540.75
2018-03-22T15:01:42.178Z,98526.41
2018-03-22T15:04:09.814Z,98526.84
2018-03-22T15:06:37.449Z,98518.94
2018-03-22T15:09:05.108Z,98513.56
2018-03-22T15:11:32.713Z,98501.66
2018-03-22T15:14:00.348Z,98507.87
2018-03-22T15:16:27.924Z,98511.09
2018-03-22T15:18:55.502Z,98500.95
2018-03-22T15:21:23.372Z,98494.91
2018-03-22T15:23:51.023Z,98483.80
2018-03-22T15:26:18.588Z,98485.71
2018-03-22T15:28:46.251Z,98463.01
2018-03-22T15:31:13.840Z,98460.27
2018-03-22T15:33:41.425Z,98452.91
2018-03-22T15:36:09.080Z,98454.30
2018-03-22T15:38:36.667Z,98448.87
2018-03-22T15:41:04.326Z,98457.46
2018-03-22T15:43:32.231Z,98462.13
2018-03-22T15:46:00.580Z,98467.53
2018-03-22T15:48:28.980Z,98468.66
2018-03-22T15:50:56.609Z,98472.64
2018-03-22T15:53:24.214Z,98479.33
2018-03-22T15:55:51.809Z,98481.61
2018-03-22T15:58:19.697Z,98479.75
2018-03-22T16:00:47.366Z,98479.80
2018-03-22T16:03:14.960Z,98467.92
2018-03-22T16:05:42.681Z,98467.41
2018-03-22T16:08:10.324Z,98479.45
2018-03-22T16:10:37.905Z,98479.27
2018-03-22T16:13:05.535Z,98490.06
2018-03-22T16:15:33.121Z,98490.52
2018-03-22T16:18:00.704Z,98488.03
2018-03-22T16:20:28.333Z,98491.58
2018-03-22T16:22:55.918Z,98488.33
2018-03-22T16:25:23.590Z,98490.59
2018-03-22T16:27:51.219Z,98501.94
2018-03-22T16:30:18.870Z,98495.36
2018-03-22T16:32:46.457Z,98498.00
2018-03-22T16:35:14.158Z,98493.54
2018-03-22T16:37:41.763Z,98497.53
2018-03-22T16:40:09.347Z,98492.14
2018-03-22T16:42:37.000Z,98492.98
2018-03-22T16:45:04.576Z,98488.41
2018-03-22T16:47:32.222Z,98474.97
2018-03-22T16:50:00.141Z,98453.43
2018-03-22T16:52:27.728Z,98452.47
2018-03-22T16:54:55.315Z,98446.12
2018-03-22T16:57:23.202Z,98437.27
2018-03-22T16:59:50.791Z,98438.41
2018-03-22T17:02:18.456Z,98431.75
2018-03-22T17:04:46.096Z,98431.33
2018-03-22T17:07:13.751Z,98427.77
2018-03-22T17:09:41.331Z,98423.91
2018-03-22T17:12:09.020Z,98422.77
2018-03-22T17:14:36.624Z,98422.15
2018-03-22T17:17:04.342Z,98404.30
2018-03-22T17:19:31.961Z,98396.28
2018-03-22T17:21:59.594Z,98395.31
2018-03-22T17:24:27.250Z,98388.97
2018-03-22T17:26:54.909Z,98374.42
2018-03-22T17:29:22.554Z,98375.87
2018-03-22T17:31:50.189Z,98375.75
2018-03-22T17:34:17.842Z,98371.28
2018-03-22T17:36:45.420Z,98353.77
2018-03-22T17:39:13.661Z,98342.72
2018-03-22T17:41:41.332Z,98360.83
2018-03-22T17:44:09.041Z,98367.84
2018-03-22T17:46:36.670Z,98375.81
2018-03-22T17:49:04.482Z,98375.13
2018-03-22T17:51:32.457Z,98382.98
2018-03-22T17:54:00.332Z,98386.67
2018-03-22T17:56:28.231Z,98408.99
2018-03-22T17:58:55.949Z,98406.78
2018-03-22T18:04:22.454Z,98385.59
2018-03-22T18:06:50.311Z,98378.71
2018-03-22T18:09:18.146Z,98368.20
2018-03-22T18:11:47.040Z,98375.13
2018-03-22T18:14:15.293Z,98400.63
2018-03-22T18:19:25.290Z,98377.25
2018-03-22T18:21:53.018Z,98378.49
2018-03-22T18:24:20.827Z,98384.25
2018-03-22T18:26:48.804Z,98390.52
2018-03-22T18:29:16.702Z,98405.45
2018-03-22T18:31:44.525Z,98393.91
2018-03-22T18:34:12.753Z,98387.53
2018-03-22T18:36:40.517Z,98377.21
2018-03-22T18:39:08.277Z,98361.31
2018-03-22T18:41:36.094Z,98343.85
2018-03-22T18:44:03.882Z,98323.56
2018-03-22T18:46:31.710Z,98305.88
2018-03-22T18:48:59.524Z,98292.15
2018-03-22T18:51:27.332Z,98273.56
2018-03-22T18:53:55.166Z,98269.41
2018-03-22T18:56:23.114Z,98260.38
2018-03-22T18:58:50.999Z,98229.89
2018-03-22T19:01:18.997Z,98231.33
2018-03-22T19:03:46.923Z,98225.49
2018-03-22T19:06:15.095Z,98209.22
2018-03-22T19:08:43.019Z,98201.87
2018-03-22T19:11:11.269Z,98194.20
2018-03-22T19:13:39.777Z,98182.89
2018-03-22T19:16:07.629Z,98178.79
2018-03-22T19:18:35.633Z,98202.92
2018-03-22T19:21:03.534Z,98203.81
2018-03-22T19:23:31.502Z,98205.72
2018-03-22T19:26:00.368Z,98224.73
2018-03-22T19:28:28.635Z,98238.59
2018-03-22T19:30:56.527Z,98246.30
2018-03-22T19:33:24.426Z,98259.80
2018-03-22T19:35:52.319Z,98277.55
2018-03-22T19:38:20.273Z,98275.42
2018-03-22T19:40:48.239Z,98275.62
2018-03-22T19:43:16.108Z,98281.58
2018-03-22T19:45:46.963Z,98290.23
2018-03-22T19:48:15.151Z,98293.64
2018-03-22T19:50:43.156Z,98293.91
2018-03-22T19:53:11.066Z,98295.28
2018-03-22T19:55:38.929Z,98261.61
2018-03-22T19:58:06.777Z,98223.05
2018-03-22T20:00:34.617Z,98201.42
2018-03-22T20:03:02.513Z,98170.19
2018-03-22T20:05:30.412Z,98174.77
2018-03-22T20:07:58.766Z,98148.24
2018-03-22T20:10:26.704Z,98135.84
2018-03-22T20:12:54.583Z,98123.38
2018-03-22T20:15:23.186Z,98117.71
2018-03-22T20:17:51.132Z,98099.52
2018-03-22T20:20:21.751Z,98083.64
2018-03-22T20:22:49.557Z,98067.49
2018-03-22T20:25:17.476Z,98074.09
2018-03-22T20:27:45.338Z,98078.08
2018-03-22T20:30:13.219Z,98055.20
2018-03-22T20:32:41.211Z,98054.88
2018-03-22T20:35:09.022Z,98080.31
2018-03-22T20:37:36.781Z,98072.70
2018-03-22T20:40:04.636Z,98060.03
2018-03-22T20:42:32.418Z,98058.70
2018-03-22T20:45:00.184Z,98078.73
2018-03-22T20:47:29.699Z,98083.84
2018-03-22T20:49:57.413Z,98087.51
2018-03-22T20:52:25.159Z,98092.34
2018-03-22T20:54:52.889Z,98079.09
2018-03-22T20:57:20.547Z,98071.37
2018-03-22T20:59:48.202Z,98071.70
2018-03-22T21:02:16.103Z,98060.34
2018-03-22T21:04:44.943Z,98054.00
2018-03-22T21:07:12.543Z,98055.84
2018-03-22T21:09:40.439Z,98046.42
2018-03-22T21:12:08.014Z,98045.40
2018-03-22T21:14:35.628Z,98038.76
2018-03-22T21:17:03.278Z,98024.78
2018-03-22T21:19:30.874Z,98005.70
2018-03-22T21:21:58.517Z,97990.42
2018-03-22T21:24:26.162Z,97986.98
2018-03-22T21:26:53.811Z,97981.72
2018-03-22T21:29:21.401Z,97982.19
2018-03-22T21:31:49.354Z,97984.32
2018-03-22T21:34:16.940Z,97991.66
2018-03-22T21:36:44.522Z,97986.59
2018-03-22T21:39:12.123Z,97992.62
2018-03-22T21:41:48.532Z,97989.91
2018-03-22T21:44:17.186Z,97968.63
2018-03-22T21:46:44.894Z,97951.09
2018-03-22T21:49:12.495Z,97944.31
2018-03-22T21:51:40.216Z,97941.55
2018-03-22T21:54:07.791Z,97934.59
2018-03-22T21:56:35.365Z,97922.48
2018-03-22T21:59:03.066Z,97924.31
2018-03-22T22:01:30.648Z,97910.90
2018-03-22T22:03:58.217Z,97905.37
2018-03-22T22:06:27.647Z,97903.01
2018-03-22T22:08:55.206Z,97879.27
2018-03-22T22:11:22.886Z,97874.03
2018-03-22T22:13:50.492Z,97876.75
2018-03-22T22:16:18.074Z,97880.75
2018-03-22T22:18:45.627Z,97880.66
2018-03-22T22:21:13.458Z,97870.45
2018-03-22T22:23:41.094Z,97864.03
2018-03-22T22:26:08.661Z,97843.47
2018-03-22T22:28:36.285Z,97827.36
2018-03-22T22:31:03.859Z,97827.57
2018-03-22T22:33:31.428Z,97808.54
2018-03-22T22:35:59.094Z,97797.78
2018-03-22T22:38:26.697Z,97772.52
2018-03-22T22:40:54.253Z,97759.52
2018-03-22T22:43:21.860Z,97756.92
2018-03-22T22:45:50.086Z,97740.72
2018-03-22T22:48:17.646Z,97731.48
2018-03-22T22:50:45.281Z,97726.16
2018-03-22T22:53:12.905Z,97721.27
2018-03-22T22:55:40.471Z,97710.63
2018-03-22T22:58:08.097Z,97710.70
2018-03-22T23:00:35.653Z,97700.62
2018-03-22T23:03:03.240Z,97705.09
2018-03-22T23:05:31.057Z,97694.27
2018-03-22T23:07:58.633Z,97698.06
2018-03-22T23:10:26.198Z,97691.13
2018-03-22T23:12:54.355Z,97694.04
2018-03-22T23:15:21.924Z,97685.58
2018-03-22T23:17:49.492Z,97681.47
2018-03-22T23:20:17.932Z,97671.61
2018-03-22T23:22:45.490Z,97668.91
2018-03-22T23:25:13.828Z,97662.42
2018-03-22T23:27:42.325Z,97650.23
2018-03-22T23:30:09.894Z,97646.12
2018-03-22T23:32:37.973Z,97639.17
2018-03-22T23:35:05.622Z,97629.45
2018-03-22T23:37:33.270Z,97619.17
2018-03-22T23:40:00.846Z,97614.04
2018-03-22T23:42:28.462Z,97612.28
2018-03-22T23:44:56.035Z,97604.59
2018-03-22T23:47:23.607Z,97602.84
2018-03-22T23:49:51.267Z,97590.57
2018-03-22T23:52:18.903Z,97584.05
2018-03-22T23:54:46.466Z,97574.97
2018-03-22T23:57:14.056Z,97575.81
2018-03-22T23:59:41.648Z,97573.22
